createdAt,value
2018-09-24T00:01:08.893Z,99.90
2018-09-24T00:03:35.735Z,99.90
2018-09-24T00:06:02.474Z,99.90
2018-09-24T00:08:29.121Z,99.90
2018-09-24T00:10:55.946Z,99.90
2018-09-24T00:13:22.697Z,99.90
2018-09-24T00:15:49.438Z,99.90
2018-09-24T00:18:16.177Z,99.90
2018-09-24T00:20:42.916Z,99.90
2018-09-24T00:23:09.646Z,99.90
2018-09-24T00:25:37.428Z,99.90
2018-09-24T00:28:04.163Z,99.90
2018-09-24T00:30:30.878Z,99.90
2018-09-24T00:32:58.667Z,99.90
2018-09-24T00:35:28.275Z,99.90
2018-09-24T00:37:55.012Z,99.90
2018-09-24T00:40:21.760Z,99.90
2018-09-24T00:42:48.496Z,99.90
2018-09-24T00:45:15.237Z,99.90
2018-09-24T00:47:42.160Z,99.90
2018-09-24T00:50:09.739Z,99.90
2018-09-24T00:52:36.471Z,99.90
2018-09-24T00:55:03.427Z,99.90
2018-09-24T00:57:30.164Z,99.90
2018-09-24T00:59:57.113Z,99.90
2018-09-24T01:02:23.825Z,99.90
2018-09-24T01:04:50.593Z,99.90
2018-09-24T01:07:17.435Z,99.90
2018-09-24T01:09:44.173Z,99.90
2018-09-24T01:12:10.888Z,99.90
2018-09-24T01:14:38.348Z,99.90
2018-09-24T01:17:05.828Z,99.90
2018-09-24T01:19:32.696Z,99.90
2018-09-24T01:22:00.231Z,99.90
2018-09-24T01:24:26.971Z,99.90
2018-09-24T01:26:53.713Z,99.90
2018-09-24T01:29:20.456Z,99.90
2018-09-24T01:31:47.196Z,99.90
2018-09-24T01:34:13.930Z,99.90
2018-09-24T01:36:40.777Z,99.90
2018-09-24T01:39:07.540Z,99.90
2018-09-24T01:41:34.257Z,99.90
2018-09-24T01:44:01.178Z,99.90
2018-09-24T01:46:28.662Z,99.90
2018-09-24T01:48:55.372Z,99.90
2018-09-24T01:51:22.932Z,99.90
2018-09-24T01:53:50.416Z,99.90
2018-09-24T01:56:17.155Z,99.90
2018-09-24T01:58:43.896Z,99.90
2018-09-24T02:01:10.643Z,99.90
2018-09-24T02:03:37.376Z,99.90
2018-09-24T02:06:04.117Z,99.90
2018-09-24T02:08:30.857Z,99.90
2018-09-24T02:10:57.597Z,99.90
2018-09-24T02:13:24.338Z,99.90
2018-09-24T02:15:51.081Z,99.90
2018-09-24T02:18:17.817Z,99.90
2018-09-24T02:20:44.786Z,99.90
2018-09-24T02:23:12.221Z,99.90
2018-09-24T02:25:39.090Z,99.90
2018-09-24T02:28:05.908Z,99.90
2018-09-24T02:30:32.649Z,99.90
2018-09-24T02:32:59.491Z,99.90
2018-09-24T02:35:26.437Z,99.90
2018-09-24T02:37:53.175Z,99.90
2018-09-24T02:40:20.006Z,99.90
2018-09-24T02:42:46.758Z,99.90
2018-09-24T02:45:13.606Z,99.90
2018-09-24T02:47:40.321Z,99.90
2018-09-24T02:50:07.781Z,99.90
2018-09-24T02:52:34.617Z,99.90
2018-09-24T02:55:02.187Z,99.90
2018-09-24T02:57:29.049Z,99.90
2018-09-24T02:59:55.786Z,99.90
2018-09-24T03:02:22.522Z,99.90
2018-09-24T03:04:49.367Z,99.90
2018-09-24T03:07:16.108Z,99.90
2018-09-24T03:09:42.926Z,99.90
2018-09-24T03:12:09.692Z,99.90
2018-09-24T03:14:36.412Z,99.90
2018-09-24T03:17:03.993Z,99.90
2018-09-24T03:19:30.731Z,99.90
2018-09-24T03:21:57.779Z,99.90
2018-09-24T03:24:24.518Z,99.90
2018-09-24T03:26:51.258Z,99.90
2018-09-24T03:29:18.105Z,99.90
2018-09-24T03:31:44.843Z,99.90
2018-09-24T03:34:11.685Z,99.90
2018-09-24T03:36:38.632Z,99.90
2018-09-24T03:39:05.477Z,99.90
2018-09-24T03:41:32.213Z,99.90
2018-09-24T03:43:58.951Z,99.90
2018-09-24T03:46:25.798Z,99.90
2018-09-24T03:48:52.537Z,99.90
2018-09-24T03:51:19.363Z,99.90
2018-09-24T03:53:46.221Z,99.90
2018-09-24T03:56:13.678Z,99.90
2018-09-24T03:58:40.420Z,99.90
2018-09-24T04:01:07.129Z,99.90
2018-09-24T04:03:34.617Z,99.90
2018-09-24T04:06:07.498Z,99.90
2018-09-24T04:08:40.280Z,99.90
2018-09-24T04:11:13.165Z,99.90
2018-09-24T04:13:45.926Z,99.90
2018-09-24T04:16:19.651Z,99.90
2018-09-24T04:18:52.432Z,99.90
2018-09-24T04:21:25.322Z,99.90
2018-09-24T04:23:58.303Z,99.90
2018-09-24T04:26:31.085Z,99.90
2018-09-24T04:29:03.969Z,99.90
2018-09-24T04:31:36.688Z,99.90
2018-09-24T04:34:09.618Z,99.90
2018-09-24T04:36:43.112Z,99.90
2018-09-24T04:39:16.435Z,99.90
2018-09-24T04:41:49.213Z,99.90
2018-09-24T04:44:22.008Z,99.90
2018-09-24T04:46:54.778Z,99.90
2018-09-24T04:49:27.456Z,99.90
2018-09-24T04:52:00.242Z,99.90
2018-09-24T04:54:33.225Z,99.90
2018-09-24T04:57:06.216Z,99.90
2018-09-24T04:59:38.893Z,99.90
2018-09-24T05:02:11.672Z,99.90
2018-09-24T05:04:44.581Z,99.90
2018-09-24T05:07:17.440Z,99.90
2018-09-24T05:09:50.331Z,99.90
2018-09-24T05:12:23.210Z,99.90
2018-09-24T05:14:55.995Z,99.90
2018-09-24T05:17:28.982Z,99.90
2018-09-24T05:20:01.968Z,99.90
2018-09-24T05:22:34.850Z,99.90
2018-09-24T05:25:07.715Z,99.90
2018-09-24T05:27:40.517Z,99.90
2018-09-24T05:30:13.299Z,99.90
2018-09-24T05:32:46.086Z,99.90
2018-09-24T05:35:18.966Z,99.90
2018-09-24T05:37:51.644Z,99.90
2018-09-24T05:40:24.634Z,99.90
2018-09-24T05:42:57.516Z,99.90
2018-09-24T05:45:30.297Z,99.90
2018-09-24T05:48:03.196Z,99.90
2018-09-24T05:50:36.169Z,99.90
2018-09-24T05:53:09.131Z,99.90
2018-09-24T05:55:41.939Z,99.90
2018-09-24T05:58:14.808Z,99.90
2018-09-24T06:00:47.708Z,99.90
2018-09-24T06:03:20.386Z,99.90
2018-09-24T06:05:53.375Z,99.90
2018-09-24T06:08:26.154Z,99.90
2018-09-24T06:10:59.041Z,99.90
2018-09-24T06:13:31.823Z,99.90
2018-09-24T06:16:04.606Z,99.90
2018-09-24T06:18:37.385Z,99.90
2018-09-24T06:21:10.168Z,99.90
2018-09-24T06:23:43.052Z,99.90
2018-09-24T06:26:15.832Z,99.90
2018-09-24T06:28:49.435Z,99.90
2018-09-24T06:31:22.194Z,99.90
2018-09-24T06:33:54.998Z,99.90
2018-09-24T06:36:27.885Z,99.90
2018-09-24T06:39:00.558Z,99.90
2018-09-24T06:41:33.242Z,99.90
2018-09-24T06:44:06.231Z,99.90
2018-09-24T06:46:39.093Z,99.90
2018-09-24T06:49:11.994Z,99.90
2018-09-24T06:51:44.881Z,99.90
2018-09-24T06:54:17.764Z,99.90
2018-09-24T06:56:50.516Z,99.90
2018-09-24T06:59:23.450Z,99.90
2018-09-24T07:01:56.319Z,99.90
2018-09-24T07:04:29.201Z,99.90
2018-09-24T07:07:01.981Z,99.90
2018-09-24T07:09:34.835Z,99.90
2018-09-24T07:12:07.547Z,99.90
2018-09-24T07:14:40.530Z,94.70
2018-09-24T07:17:13.212Z,93.20
2018-09-24T07:19:46.197Z,94.30
2018-09-24T07:22:19.084Z,94.00
2018-09-24T07:24:51.965Z,91.30
2018-09-24T07:27:24.749Z,88.80
2018-09-24T07:29:58.556Z,83.60
2018-09-24T07:32:31.441Z,83.50
2018-09-24T07:35:04.322Z,82.80
2018-09-24T07:37:37.411Z,85.30
2018-09-24T07:40:10.401Z,90.10
2018-09-24T07:42:43.284Z,92.00
2018-09-24T07:45:16.006Z,92.30
2018-09-24T07:47:49.413Z,89.20
2018-09-24T07:50:23.092Z,87.60
2018-09-24T07:52:56.253Z,87.50
2018-09-24T07:55:29.332Z,82.20
2018-09-24T07:58:02.835Z,78.60
2018-09-24T08:00:35.726Z,78.50
2018-09-24T08:03:08.599Z,80.30
2018-09-24T08:05:41.494Z,82.00
2018-09-24T08:08:14.157Z,84.80
2018-09-24T08:10:47.065Z,88.20
2018-09-24T08:13:20.096Z,87.50
2018-09-24T08:15:52.926Z,89.40
2018-09-24T08:18:25.710Z,90.70
2018-09-24T08:20:58.498Z,91.60
2018-09-24T08:23:31.313Z,90.90
2018-09-24T08:26:04.238Z,91.50
2018-09-24T08:28:37.196Z,92.80
2018-09-24T08:31:10.214Z,91.00
2018-09-24T08:33:42.915Z,88.50
2018-09-24T08:36:16.009Z,88.50
2018-09-24T08:38:48.888Z,87.10
2018-09-24T08:41:21.978Z,86.80
2018-09-24T08:43:54.633Z,87.90
2018-09-24T08:46:27.443Z,87.00
2018-09-24T08:49:00.145Z,85.80
2018-09-24T08:51:33.002Z,83.50
2018-09-24T08:54:05.787Z,81.70
2018-09-24T08:56:38.706Z,80.20
2018-09-24T08:59:11.451Z,77.20
2018-09-24T09:01:44.743Z,75.60
2018-09-24T09:04:17.527Z,76.60
2018-09-24T09:06:50.388Z,76.00
2018-09-24T09:09:23.191Z,74.50
2018-09-24T09:11:56.383Z,71.90
2018-09-24T09:14:29.164Z,70.40
2018-09-24T09:17:02.049Z,71.70
2018-09-24T09:19:34.809Z,71.90
2018-09-24T09:22:07.511Z,72.80
2018-09-24T09:24:40.265Z,73.30
2018-09-24T09:27:13.074Z,73.80
2018-09-24T09:29:46.166Z,74.50
2018-09-24T09:32:19.056Z,74.50
2018-09-24T09:34:51.931Z,76.00
2018-09-24T09:37:24.671Z,72.70
2018-09-24T09:39:58.110Z,72.30
2018-09-24T09:42:46.150Z,72.30
2018-09-24T09:45:18.910Z,73.60
2018-09-24T09:47:51.920Z,72.20
2018-09-24T09:50:24.665Z,72.90
2018-09-24T09:52:58.277Z,74.30
2018-09-24T09:55:31.289Z,74.20
2018-09-24T09:58:04.053Z,73.70
2018-09-24T10:00:36.838Z,72.00
2018-09-24T10:03:09.713Z,71.80
2018-09-24T10:05:42.518Z,71.60
2018-09-24T10:08:15.588Z,71.50
2018-09-24T10:10:48.491Z,72.60
2018-09-24T10:13:21.381Z,72.00
2018-09-24T10:15:54.363Z,72.60
2018-09-24T10:18:27.350Z,73.50
2018-09-24T10:21:00.131Z,76.10
2018-09-24T10:23:33.322Z,73.70
2018-09-24T10:26:06.206Z,71.10
2018-09-24T10:28:39.195Z,76.20
2018-09-24T10:31:11.953Z,72.10
2018-09-24T10:33:44.756Z,73.00
2018-09-24T10:36:17.644Z,78.20
2018-09-24T10:38:50.317Z,72.90
2018-09-24T10:41:23.310Z,72.20
2018-09-24T10:43:55.997Z,72.70
2018-09-24T10:46:28.872Z,71.40
2018-09-24T10:49:01.640Z,70.30
2018-09-24T10:51:34.640Z,70.10
2018-09-24T10:54:07.400Z,72.00
2018-09-24T10:56:40.178Z,73.30
2018-09-24T10:59:12.975Z,73.20
2018-09-24T11:01:45.745Z,75.40
2018-09-24T11:04:18.754Z,70.90
2018-09-24T11:06:51.514Z,67.30
2018-09-24T11:09:24.397Z,64.50
2018-09-24T11:11:57.203Z,64.50
2018-09-24T11:14:29.984Z,65.40
2018-09-24T11:17:02.833Z,66.60
2018-09-24T11:19:35.855Z,66.60
2018-09-24T11:22:08.789Z,64.10
2018-09-24T11:24:41.523Z,65.00
2018-09-24T11:27:14.354Z,64.20
2018-09-24T11:29:47.097Z,64.80
2018-09-24T11:32:20.553Z,65.20
2018-09-24T11:34:53.341Z,65.80
2018-09-24T11:37:26.439Z,64.50
2018-09-24T11:39:59.442Z,63.20
2018-09-24T11:42:32.408Z,63.10
2018-09-24T11:45:05.288Z,60.50
2018-09-24T11:47:38.177Z,62.00
2018-09-24T11:50:11.288Z,62.40
2018-09-24T11:52:58.900Z,62.70
2018-09-24T11:55:31.821Z,62.30
2018-09-24T11:58:04.661Z,63.30
2018-09-24T12:00:37.573Z,60.90
2018-09-24T12:03:10.280Z,62.30
2018-09-24T12:05:43.340Z,61.80
2018-09-24T12:08:16.093Z,60.60
2018-09-24T12:10:49.110Z,60.90
2018-09-24T12:13:22.096Z,62.20
2018-09-24T12:15:54.878Z,63.60
2018-09-24T12:18:27.759Z,62.20
2018-09-24T12:21:00.674Z,61.90
2018-09-24T12:23:33.630Z,62.00
2018-09-24T12:26:06.593Z,61.30
2018-09-24T12:28:39.377Z,62.90
2018-09-24T12:31:12.488Z,60.50
2018-09-24T12:33:45.271Z,62.00
2018-09-24T12:36:19.493Z,60.90
2018-09-24T12:38:52.316Z,60.90
2018-09-24T12:41:25.083Z,59.50
2018-09-24T12:43:58.068Z,59.50
2018-09-24T12:46:31.040Z,60.40
2018-09-24T12:49:04.056Z,59.60
2018-09-24T12:51:37.081Z,61.50
2018-09-24T12:54:10.050Z,62.10
2018-09-24T12:56:43.107Z,66.20
2018-09-24T12:59:15.821Z,61.90
2018-09-24T13:01:48.707Z,63.60
2018-09-24T13:04:21.522Z,62.40
2018-09-24T13:06:54.280Z,62.40
2018-09-24T13:09:27.212Z,61.50
2018-09-24T13:12:00.009Z,62.10
2018-09-24T13:14:32.860Z,62.90
2018-09-24T13:17:05.749Z,62.60
2018-09-24T13:19:38.750Z,63.90
2018-09-24T13:22:12.453Z,64.30
2018-09-24T13:24:45.172Z,63.50
2018-09-24T13:27:18.603Z,63.20
2018-09-24T13:29:51.371Z,63.10
2018-09-24T13:32:24.403Z,63.20
2018-09-24T13:34:57.390Z,64.20
2018-09-24T13:37:30.385Z,65.00
2018-09-24T13:40:03.417Z,66.00
2018-09-24T13:42:36.114Z,64.60
2018-09-24T13:45:08.962Z,63.90
2018-09-24T13:47:41.958Z,64.10
2018-09-24T13:50:15.033Z,65.50
2018-09-24T13:52:48.111Z,63.80
2018-09-24T13:55:21.137Z,64.40
2018-09-24T13:57:53.847Z,63.90
2018-09-24T14:00:27.407Z,63.50
2018-09-24T14:03:01.159Z,63.70
2018-09-24T14:05:34.010Z,63.80
2018-09-24T14:08:06.735Z,64.30
2018-09-24T14:10:40.065Z,62.20
2018-09-24T14:13:12.910Z,62.40
2018-09-24T14:15:45.852Z,63.10
2018-09-24T14:18:18.598Z,60.80
2018-09-24T14:20:51.492Z,60.40
2018-09-24T14:23:24.543Z,63.30
2018-09-24T14:25:57.457Z,62.20
2018-09-24T14:28:30.161Z,62.30
2018-09-24T14:31:03.085Z,62.90
2018-09-24T14:33:35.972Z,61.30
2018-09-24T14:36:09.116Z,60.50
2018-09-24T14:38:41.942Z,60.90
2018-09-24T14:41:14.701Z,62.00
2018-09-24T14:43:48.429Z,62.80
2018-09-24T14:46:21.381Z,62.70
2018-09-24T14:48:54.301Z,62.50
2018-09-24T14:51:27.554Z,63.50
2018-09-24T14:54:00.553Z,66.60
2018-09-24T14:56:33.304Z,65.60
2018-09-24T14:59:06.432Z,66.20
2018-09-24T15:01:39.320Z,66.30
2018-09-24T15:04:12.270Z,67.10
2018-09-24T15:06:45.132Z,65.60
2018-09-24T15:09:18.039Z,65.90
2018-09-24T15:11:51.004Z,68.10
2018-09-24T15:14:23.905Z,67.90
2018-09-24T15:16:57.688Z,66.80
2018-09-24T15:19:30.401Z,66.90
2018-09-24T15:22:03.506Z,66.40
2018-09-24T15:24:36.596Z,68.70
2018-09-24T15:27:09.448Z,66.50
2018-09-24T15:29:42.981Z,65.80
2018-09-24T15:32:16.068Z,65.80
2018-09-24T15:34:49.093Z,67.10
2018-09-24T15:37:22.398Z,66.70
2018-09-24T15:39:56.325Z,69.80
2018-09-24T15:42:30.312Z,67.90
2018-09-24T15:45:03.247Z,67.80
2018-09-24T15:47:36.283Z,67.80
2018-09-24T15:50:09.298Z,66.80
2018-09-24T15:52:43.156Z,68.70
2018-09-24T15:55:16.166Z,68.80
2018-09-24T15:57:48.950Z,70.70
2018-09-24T16:00:21.721Z,70.40
2018-09-24T16:02:54.684Z,71.00
2018-09-24T16:05:28.385Z,71.00
2018-09-24T16:08:01.341Z,71.00
2018-09-24T16:10:34.897Z,70.00
2018-09-24T16:13:07.773Z,70.00
2018-09-24T16:15:40.672Z,72.80
2018-09-24T16:18:13.917Z,72.20
2018-09-24T16:20:47.137Z,72.10
2018-09-24T16:23:20.220Z,71.50
2018-09-24T16:25:52.955Z,71.80
2018-09-24T16:28:31.879Z,71.90
2018-09-24T16:31:04.837Z,73.00
2018-09-24T16:33:37.694Z,71.60
2018-09-24T16:36:10.585Z,72.20
2018-09-24T16:38:43.648Z,73.20
2018-09-24T16:41:16.636Z,73.00
2018-09-24T16:43:49.701Z,74.00
2018-09-24T16:46:22.517Z,74.80
2018-09-24T16:48:55.378Z,73.20
2018-09-24T16:51:28.349Z,72.60
2018-09-24T16:54:01.124Z,74.30
2018-09-24T16:56:34.697Z,77.00
2018-09-24T16:59:07.679Z,77.00
2018-09-24T17:01:40.681Z,77.30
2018-09-24T17:04:13.534Z,78.90
2018-09-24T17:06:46.512Z,78.90
2018-09-24T17:09:20.090Z,77.10
2018-09-24T17:11:53.803Z,77.40
2018-09-24T17:14:26.596Z,77.40
2018-09-24T17:17:00.281Z,79.60
2018-09-24T17:19:33.132Z,79.70
2018-09-24T17:22:06.067Z,79.60
2018-09-24T17:24:39.161Z,78.70
2018-09-24T17:27:11.969Z,78.90
2018-09-24T17:29:44.868Z,79.80
2018-09-24T17:32:17.576Z,81.00
2018-09-24T17:34:50.411Z,80.50
2018-09-24T17:37:23.442Z,81.00
2018-09-24T17:39:56.377Z,83.30
2018-09-24T17:42:30.098Z,77.50
2018-09-24T17:45:02.987Z,77.40
2018-09-24T17:47:35.861Z,77.00
2018-09-24T17:50:08.721Z,76.20
2018-09-24T17:52:41.617Z,76.40
2018-09-24T17:55:14.530Z,77.30
2018-09-24T17:57:47.429Z,77.00
2018-09-24T18:00:21.708Z,78.30
2018-09-24T18:02:54.789Z,78.30
2018-09-24T18:05:27.540Z,79.30
2018-09-24T18:08:01.125Z,79.30
2018-09-24T18:10:34.013Z,79.20
2018-09-24T18:13:07.069Z,78.90
2018-09-24T18:15:39.997Z,78.60
2018-09-24T18:18:13.628Z,79.50
2018-09-24T18:20:46.500Z,79.40
2018-09-24T18:23:20.248Z,79.30
2018-09-24T18:25:53.171Z,79.30
2018-09-24T18:28:25.968Z,80.10
2018-09-24T18:30:59.501Z,81.70
2018-09-24T18:33:32.545Z,81.60
2018-09-24T18:36:05.500Z,81.70
2018-09-24T18:38:38.368Z,81.50
2018-09-24T18:41:11.252Z,83.10
2018-09-24T18:43:44.950Z,83.30
2018-09-24T18:46:18.542Z,86.10
2018-09-24T18:48:51.369Z,86.00
2018-09-24T18:51:24.194Z,84.70
2018-09-24T18:53:57.020Z,86.60
2018-09-24T18:56:29.898Z,86.30
2018-09-24T18:59:03.103Z,86.60
2018-09-24T19:01:36.030Z,90.10
2018-09-24T19:04:09.033Z,90.20
2018-09-24T19:06:42.244Z,89.50
2018-09-24T19:09:15.693Z,88.90
2018-09-24T19:11:49.392Z,90.40
2018-09-24T19:14:22.248Z,90.30
2018-09-24T19:16:55.881Z,91.70
2018-09-24T19:19:29.063Z,91.80
2018-09-24T19:22:02.580Z,91.80
2018-09-24T19:24:35.653Z,91.80
2018-09-24T19:27:08.532Z,93.00
2018-09-24T19:29:42.249Z,94.70
2018-09-24T19:32:15.117Z,94.70
2018-09-24T19:34:47.907Z,94.70
2018-09-24T19:37:20.877Z,94.20
2018-09-24T19:39:53.738Z,95.40
2018-09-24T19:42:26.662Z,95.50
2018-09-24T19:44:59.511Z,96.80
2018-09-24T19:47:32.472Z,97.20
2018-09-24T19:50:05.365Z,98.40
2018-09-24T19:52:38.281Z,98.30
2018-09-24T19:55:11.148Z,99.10
2018-09-24T19:57:44.053Z,99.40
2018-09-24T20:00:17.692Z,99.90
2018-09-24T20:02:51.035Z,99.90
2018-09-24T20:05:23.801Z,99.90
2018-09-24T20:07:56.718Z,99.90
2018-09-24T20:10:29.789Z,99.90
2018-09-24T20:13:02.515Z,99.90
2018-09-24T20:15:35.399Z,99.90
2018-09-24T20:18:08.746Z,99.90
2018-09-24T20:20:41.678Z,99.90
2018-09-24T20:23:14.526Z,99.90
2018-09-24T20:25:47.203Z,99.90
2018-09-24T20:28:19.821Z,99.90
2018-09-24T20:30:52.638Z,99.90
2018-09-24T20:33:26.439Z,99.90
2018-09-24T20:35:59.314Z,99.90
2018-09-24T20:38:32.391Z,99.90
2018-09-24T20:41:05.842Z,99.90
2018-09-24T20:43:38.991Z,99.90
2018-09-24T20:46:12.466Z,99.90
2018-09-24T20:48:46.234Z,99.90
2018-09-24T20:51:19.150Z,99.90
2018-09-24T20:53:51.949Z,99.90
2018-09-24T20:56:25.452Z,99.90
2018-09-24T20:58:58.265Z,99.90
2018-09-24T21:01:31.256Z,99.90
2018-09-24T21:04:04.121Z,99.90
2018-09-24T21:06:37.043Z,99.90
2018-09-24T21:09:09.884Z,99.90
2018-09-24T21:11:43.131Z,99.90
2018-09-24T21:14:16.676Z,99.90
2018-09-24T21:16:49.668Z,99.90
2018-09-24T21:19:22.244Z,99.90
2018-09-24T21:21:55.198Z,99.90
2018-09-24T21:24:27.991Z,99.90
2018-09-24T21:27:00.974Z,99.90
2018-09-24T21:29:33.803Z,99.90
2018-09-24T21:32:06.724Z,99.90
2018-09-24T21:34:39.588Z,99.90
2018-09-24T21:37:12.516Z,99.90
2018-09-24T21:39:45.565Z,99.90
2018-09-24T21:42:18.248Z,99.90
2018-09-24T21:44:51.235Z,99.90
2018-09-24T21:47:23.967Z,99.90
2018-09-24T21:49:56.701Z,99.90
2018-09-24T21:52:30.184Z,99.90
2018-09-24T21:55:03.045Z,99.90
2018-09-24T21:57:35.963Z,99.90
2018-09-24T22:00:08.687Z,99.90
2018-09-24T22:02:41.841Z,99.90
2018-09-24T22:05:14.653Z,99.90
2018-09-24T22:07:47.731Z,99.90
2018-09-24T22:10:20.512Z,99.90
2018-09-24T22:12:53.200Z,99.90
2018-09-24T22:15:26.050Z,99.90
2018-09-24T22:17:58.890Z,99.90
2018-09-24T22:20:31.829Z,99.90
2018-09-24T22:23:04.690Z,99.90
2018-09-24T22:25:37.639Z,99.90
2018-09-24T22:28:10.381Z,99.90
2018-09-24T22:30:43.116Z,99.90
2018-09-24T22:33:15.918Z,99.90
2018-09-24T22:35:48.778Z,99.90
2018-09-24T22:38:21.636Z,99.90
2018-09-24T22:40:55.194Z,99.90
2018-09-24T22:43:27.962Z,99.90
2018-09-24T22:46:00.747Z,99.90
2018-09-24T22:48:33.466Z,99.90
2018-09-24T22:51:07.954Z,99.90
2018-09-24T22:53:40.736Z,99.90
2018-09-24T22:56:13.606Z,99.90
2018-09-24T22:58:46.422Z,99.90
2018-09-24T23:01:19.344Z,99.90
2018-09-24T23:03:52.274Z,99.90
2018-09-24T23:06:25.117Z,99.90
2018-09-24T23:08:57.771Z,99.90
2018-09-24T23:11:31.428Z,99.90
2018-09-24T23:14:04.310Z,99.90
2018-09-24T23:16:37.187Z,99.90
2018-09-24T23:19:10.047Z,99.90
2018-09-24T23:21:42.760Z,99.90
2018-09-24T23:24:15.521Z,99.90
2018-09-24T23:26:48.345Z,99.90
2018-09-24T23:29:21.328Z,99.90
2018-09-24T23:31:53.929Z,99.90
2018-09-24T23:34:26.855Z,99.90
2018-09-24T23:36:59.655Z,99.90
2018-09-24T23:39:32.489Z,99.90
2018-09-24T23:42:05.336Z,99.90
2018-09-24T23:44:38.214Z,99.90
2018-09-24T23:47:11.037Z,99.90
2018-09-24T23:49:43.948Z,99.90
2018-09-24T23:52:16.695Z,99.90
2018-09-24T23:54:49.546Z,99.90
2018-09-24T23:57:22.379Z,99.90
2018-09-24T23:59:55.213Z,99.90
